Time;durP1;ratioP1;P1;durP2;ratioP2;P2;SDS_P1;SDS_P2;PMS_P1;PMS_P2;Temp;Humidity;BMP_temperature;BMP_pressure;BME280_temperature;BME280_humidity;BME280_pressure;Samples;Min_cycle;Max_cycle;Signal;HPM_P1;HPM_P2
2022/09/20 00:00:42;;;;;;;8.10;4.33;;;10.90;99.90;;;;;;5052183;28;20432;-51
2022/09/20 00:03:08;;;;;;;10.60;4.87;;;11.00;99.90;;;;;;5050758;28;20569;-48
2022/09/20 00:05:39;;;;;;;9.80;3.83;;;11.00;99.90;;;;;;5052015;28;20802;-54
2022/09/20 00:08:06;;;;;;;8.33;4.33;;;11.10;99.90;;;;;;5051759;28;21023;-49
2022/09/20 00:10:35;;;;;;;9.17;4.10;;;11.20;99.90;;;;;;5052071;28;20507;-50
2022/09/20 00:13:01;;;;;;;11.70;4.90;;;11.10;99.90;;;;;;5051362;28;20420;-48
2022/09/20 00:15:28;;;;;;;6.50;3.90;;;11.20;99.90;;;;;;5051978;28;20427;-52
2022/09/20 00:17:54;;;;;;;12.13;4.40;;;11.10;99.90;;;;;;5051905;28;20431;-49
2022/09/20 00:20:19;;;;;;;9.30;3.97;;;11.10;99.90;;;;;;5062728;28;20423;-53
2022/09/20 00:22:48;;;;;;;6.90;3.87;;;11.10;99.90;;;;;;5049886;28;20193;-51
2022/09/20 00:25:15;;;;;;;9.37;5.10;;;11.00;99.90;;;;;;5051744;28;20277;-51
2022/09/20 00:27:40;;;;;;;10.70;4.40;;;11.00;99.90;;;;;;5051635;28;20549;-49
2022/09/20 00:30:07;;;;;;;10.53;4.23;;;11.00;99.90;;;;;;5051702;28;20524;-50
2022/09/20 00:32:32;;;;;;;5.00;4.10;;;11.00;99.90;;;;;;5051312;28;20205;-50
2022/09/20 00:35:07;;;;;;;11.33;4.40;;;10.90;99.90;;;;;;5050879;28;20428;-49
2022/09/20 00:37:50;;;;;;;7.20;3.50;;;10.90;99.90;;;;;;5051674;28;20617;-48
2022/09/20 00:40:19;;;;;;;6.73;3.60;;;10.80;99.90;;;;;;5051433;28;20428;-48
2022/09/20 00:42:46;;;;;;;7.53;3.83;;;10.70;99.90;;;;;;5050895;28;20435;-49
2022/09/20 00:45:20;;;;;;;10.73;4.30;;;10.70;99.90;;;;;;5051136;28;20424;-49
2022/09/20 00:48:12;;;;;;;6.67;3.97;;;10.70;99.90;;;;;;5051306;28;20473;-46
2022/09/20 00:50:46;;;;;;;11.80;4.33;;;10.70;99.90;;;;;;5051789;28;20424;-50
2022/09/20 00:53:26;;;;;;;7.07;4.33;;;10.80;99.90;;;;;;5049815;28;20832;-51
2022/09/20 00:55:57;;;;;;;8.40;3.93;;;10.80;99.90;;;;;;5051015;28;21077;-46
2022/09/20 00:58:26;;;;;;;9.83;3.83;;;10.80;99.90;;;;;;5051185;28;20424;-51
2022/09/20 01:00:54;;;;;;;8.83;4.13;;;10.90;99.90;;;;;;5051071;28;20425;-49
2022/09/20 01:03:21;;;;;;;11.03;4.53;;;10.90;99.90;;;;;;5050275;28;20420;-47
2022/09/20 01:05:49;;;;;;;7.20;4.27;;;10.90;99.90;;;;;;5050733;28;20443;-48
2022/09/20 01:08:16;;;;;;;10.40;4.23;;;10.80;99.90;;;;;;5050587;28;20456;-51
2022/09/20 01:10:41;;;;;;;6.83;4.20;;;10.90;99.90;;;;;;5050854;28;20440;-49
2022/09/20 01:13:08;;;;;;;7.20;4.30;;;10.90;99.90;;;;;;5050226;28;20431;-52
2022/09/20 01:15:36;;;;;;;6.10;3.80;;;10.90;99.90;;;;;;5050690;28;20810;-52
2022/09/20 01:18:03;;;;;;;7.57;4.50;;;10.90;99.90;;;;;;5050784;28;20774;-53
2022/09/20 01:20:35;;;;;;;7.43;4.73;;;10.90;99.90;;;;;;5061715;28;20424;-50
2022/09/20 01:23:34;;;;;;;7.63;4.67;;;10.90;99.90;;;;;;5049941;28;20420;-48
2022/09/20 01:26:34;;;;;;;8.20;4.80;;;10.90;99.90;;;;;;5050644;28;20497;-51
2022/09/20 01:29:12;;;;;;;6.90;4.13;;;10.90;99.90;;;;;;5050239;28;20456;-50
2022/09/20 01:31:50;;;;;;;9.47;4.20;;;10.80;99.90;;;;;;5050533;28;20499;-51
2022/09/20 01:34:25;;;;;;;15.20;4.17;;;10.80;99.90;;;;;;5049924;28;20503;-52
2022/09/20 01:36:58;;;;;;;9.00;3.87;;;10.80;99.90;;;;;;5050376;28;20843;-50
2022/09/20 01:39:58;;;;;;;11.87;4.10;;;10.80;99.90;;;;;;5050243;28;20915;-48
2022/09/20 01:42:37;;;;;;;9.80;4.57;;;10.80;99.90;;;;;;5057745;28;20431;-50
2022/09/20 01:45:09;;;;;;;7.73;4.60;;;10.80;99.90;;;;;;5050161;28;20440;-51
2022/09/20 01:47:46;;;;;;;6.20;4.03;;;10.90;99.90;;;;;;5049911;28;20452;-49
2022/09/20 01:50:27;;;;;;;8.30;4.13;;;10.90;99.90;;;;;;5050169;28;20420;-48
2022/09/20 01:53:05;;;;;;;4.63;3.73;;;10.90;99.90;;;;;;5049317;28;20420;-47
2022/09/20 01:56:08;;;;;;;7.67;3.90;;;10.80;99.90;;;;;;5049388;28;20518;-50
2022/09/20 01:58:49;;;;;;;7.33;4.03;;;10.80;99.90;;;;;;5049503;28;20977;-49
2022/09/20 02:01:35;;;;;;;5.67;3.40;;;10.80;99.90;;;;;;5049976;28;20778;-49
2022/09/20 02:04:31;;;;;;;6.80;3.73;;;10.80;99.90;;;;;;5049329;28;20419;-51
2022/09/20 02:07:06;;;;;;;7.73;4.03;;;10.70;99.90;;;;;;5048426;28;20420;-50
2022/09/20 02:09:59;;;;;;;11.13;4.20;;;10.80;99.90;;;;;;5050174;28;20408;-51
2022/09/20 02:12:31;;;;;;;5.57;3.60;;;10.80;99.90;;;;;;5049096;28;20566;-49
2022/09/20 02:15:25;;;;;;;7.10;3.73;;;10.80;99.90;;;;;;5048079;28;20918;-48
2022/09/20 02:18:31;;;;;;;9.30;3.97;;;10.80;99.90;;;;;;5049330;28;20424;-49
2022/09/20 02:21:23;;;;;;;7.80;3.60;;;10.80;99.90;;;;;;5060582;28;20454;-47
2022/09/20 02:23:54;;;;;;;8.47;4.20;;;10.80;99.90;;;;;;5049187;28;20495;-51
2022/09/20 02:26:49;;;;;;;7.30;3.90;;;10.80;99.90;;;;;;5049826;28;20419;-48
2022/09/20 02:29:30;;;;;;;9.33;5.13;;;10.80;99.90;;;;;;5049853;28;20843;-47
2022/09/20 02:31:59;;;;;;;7.40;4.33;;;10.80;99.90;;;;;;5049623;28;20406;-53
2022/09/20 02:34:43;;;;;;;12.10;4.67;;;10.80;99.90;;;;;;5049070;28;20465;-52
2022/09/20 02:37:18;;;;;;;7.53;4.00;;;10.80;99.90;;;;;;5049545;28;20468;-49
2022/09/20 02:40:02;;;;;;;8.53;4.60;;;10.80;99.90;;;;;;5048348;28;20965;-47
2022/09/20 02:42:37;;;;;;;8.63;5.00;;;10.80;99.90;;;;;;5049250;28;20462;-48
2022/09/20 02:45:30;;;;;;;9.43;5.03;;;10.80;99.90;;;;;;5049452;28;20930;-49
2022/09/20 02:48:02;;;;;;;8.20;4.77;;;10.80;99.90;;;;;;5049289;28;20545;-52
2022/09/20 02:50:49;;;;;;;8.80;4.70;;;10.80;99.90;;;;;;5049409;28;20421;-49
2022/09/20 02:53:47;;;;;;;11.67;5.50;;;10.80;99.90;;;;;;5047989;28;20938;-51
2022/09/20 02:56:26;;;;;;;9.70;4.63;;;10.70;99.90;;;;;;5049297;28;20419;-46
2022/09/20 02:59:29;;;;;;;10.67;5.53;;;10.70;99.90;;;;;;5049308;28;20424;-51
2022/09/20 03:02:02;;;;;;;9.70;5.23;;;10.70;99.90;;;;;;5049508;28;20431;-46
2022/09/20 03:05:01;;;;;;;7.13;5.27;;;10.70;99.90;;;;;;5048567;28;20475;-48
2022/09/20 03:07:51;;;;;;;8.23;5.60;;;10.70;99.90;;;;;;5049096;28;20495;-51
2022/09/20 03:10:41;;;;;;;8.57;5.17;;;10.70;99.90;;;;;;5052302;28;20420;-50
2022/09/20 03:13:36;;;;;;;9.00;5.63;;;10.70;99.90;;;;;;5052387;28;20451;-48
2022/09/20 03:16:01;;;;;;;11.60;5.53;;;10.70;99.90;;;;;;5051802;28;20511;-50
2022/09/20 03:18:49;;;;;;;11.03;5.87;;;10.70;99.90;;;;;;5053012;28;20831;-48
2022/09/20 03:21:35;;;;;;;11.20;6.50;;;10.60;99.90;;;;;;5064243;28;20185;-49
2022/09/20 03:24:19;;;;;;;6.53;4.67;;;10.60;99.90;;;;;;5052287;28;20435;-49
2022/09/20 03:27:06;;;;;;;8.40;5.77;;;10.60;99.90;;;;;;5052930;28;20427;-48
2022/09/20 03:29:38;;;;;;;8.63;5.30;;;10.60;99.90;;;;;;5052856;28;20514;-52
2022/09/20 03:32:07;;;;;;;8.60;5.30;;;10.60;99.90;;;;;;5052325;28;20846;-48
2022/09/20 03:34:56;;;;;;;11.93;5.40;;;10.60;99.90;;;;;;5052303;28;20959;-50
2022/09/20 03:38:03;;;;;;;8.60;5.27;;;10.60;99.90;;;;;;5052754;28;20522;-52
2022/09/20 03:40:55;;;;;;;8.47;5.43;;;10.60;99.90;;;;;;5069526;28;20427;-53
2022/09/20 03:43:45;;;;;;;11.70;6.40;;;10.60;99.90;;;;;;5048249;28;20412;-50
2022/09/20 03:46:21;;;;;;;13.17;5.73;;;10.60;99.90;;;;;;5052549;28;20914;-51
2022/09/20 03:49:18;;;;;;;7.57;5.63;;;10.60;99.90;;;;;;5052141;28;20966;-51
2022/09/20 03:51:46;;;;;;;10.53;5.60;;;10.60;99.90;;;;;;5052235;28;20470;-52
2022/09/20 03:54:53;;;;;;;13.63;6.43;;;10.60;99.90;;;;;;5050864;28;20923;-50
2022/09/20 03:57:37;;;;;;;14.70;6.97;;;10.60;99.90;;;;;;5069393;28;20423;-49
2022/09/20 04:00:23;;;;;;;7.03;5.70;;;10.60;99.90;;;;;;5069426;28;20419;-49
2022/09/20 04:02:57;;;;;;;9.97;5.73;;;10.60;99.90;;;;;;5043784;28;21018;-51
2022/09/20 04:05:37;;;;;;;11.67;6.00;;;10.60;99.90;;;;;;5051762;28;20436;-53
2022/09/20 04:08:12;;;;;;;8.30;5.60;;;10.60;99.90;;;;;;5051981;28;20546;-49
2022/09/20 04:10:45;;;;;;;13.00;5.80;;;10.50;99.90;;;;;;5051976;28;20930;-52
2022/09/20 04:13:29;;;;;;;8.07;5.80;;;10.50;99.90;;;;;;5051489;28;20463;-48
2022/09/20 04:16:20;;;;;;;9.50;5.70;;;10.50;99.90;;;;;;5051735;28;20965;-48
2022/09/20 04:18:49;;;;;;;12.43;6.30;;;10.40;99.90;;;;;;5052021;28;20466;-48
2022/09/20 04:21:32;;;;;;;11.17;5.60;;;10.40;99.90;;;;;;5062227;28;20474;-50
2022/09/20 04:24:10;;;;;;;10.00;5.70;;;10.40;99.90;;;;;;5051086;28;20420;-52
2022/09/20 04:26:43;;;;;;;8.30;5.60;;;10.50;99.90;;;;;;5051670;28;20427;-51
2022/09/20 04:30:04;;;;;;;7.77;5.47;;;10.50;99.90;;;;;;5050409;28;21058;-47
2022/09/20 04:32:42;;;;;;;19.57;6.57;;;10.50;99.90;;;;;;5068079;28;20893;-51
2022/09/20 04:38:30;;;;;;;10.97;6.20;;;10.60;99.90;;;;;;5047183;28;20421;-51
2022/09/20 04:41:27;;;;;;;12.40;6.00;;;10.60;99.90;;;;;;5051361;28;20416;-52
2022/09/20 04:44:05;;;;;;;9.27;5.90;;;10.70;99.90;;;;;;5050868;28;20424;-50
2022/09/20 04:46:58;;;;;;;12.90;7.13;;;10.70;99.90;;;;;;5051289;28;20420;-52
2022/09/20 04:49:42;;;;;;;14.87;7.70;;;10.90;99.90;;;;;;5049122;28;20424;-48
2022/09/20 04:52:38;;;;;;;11.13;6.87;;;10.90;99.90;;;;;;5037596;28;20955;-52
2022/09/20 04:55:26;;;;;;;9.90;7.00;;;10.90;99.90;;;;;;5049689;28;21048;-53
2022/09/20 04:58:19;;;;;;;8.53;6.60;;;10.90;99.90;;;;;;5048816;28;20437;-50
2022/09/20 05:01:15;;;;;;;12.27;7.23;;;10.90;99.90;;;;;;5045135;28;20474;-49
2022/09/20 05:03:59;;;;;;;9.00;6.10;;;10.90;99.90;;;;;;5051874;28;20469;-49
2022/09/20 05:06:55;;;;;;;12.70;7.00;;;10.90;99.90;;;;;;5050987;28;20429;-48
2022/09/20 05:10:02;;;;;;;10.20;6.30;;;10.90;99.90;;;;;;5050983;28;20485;-49
2022/09/20 05:12:49;;;;;;;10.20;6.73;;;10.90;99.90;;;;;;5050555;28;20416;-45
2022/09/20 05:15:29;;;;;;;14.93;6.97;;;11.00;99.90;;;;;;5049723;28;20912;-47
2022/09/20 05:18:00;;;;;;;9.47;5.50;;;11.00;99.90;;;;;;5037869;28;20463;-46
2022/09/20 05:20:58;;;;;;;9.63;6.60;;;11.00;99.90;;;;;;5060256;28;20910;-47
2022/09/20 05:23:40;;;;;;;11.97;6.40;;;11.00;99.90;;;;;;5049112;28;20571;-48
2022/09/20 05:26:22;;;;;;;8.30;6.50;;;11.10;99.90;;;;;;5038661;28;20424;-47
2022/09/20 05:29:24;;;;;;;11.87;6.37;;;11.10;99.90;;;;;;5051848;28;20484;-49
2022/09/20 05:32:26;;;;;;;10.60;6.53;;;11.10;99.90;;;;;;5045238;28;20415;-48
2022/09/20 05:35:24;;;;;;;7.60;5.60;;;11.10;99.90;;;;;;5048735;28;20527;-52
2022/09/20 05:37:59;;;;;;;10.03;6.37;;;11.10;99.90;;;;;;5040652;28;20440;-48
2022/09/20 05:40:34;;;;;;;9.97;6.23;;;11.20;99.90;;;;;;5050402;28;21045;-47
2022/09/20 05:43:12;;;;;;;10.47;6.17;;;11.20;99.90;;;;;;5048494;28;20427;-46
2022/09/20 05:46:08;;;;;;;8.90;6.60;;;11.20;99.90;;;;;;5042625;28;20456;-50
2022/09/20 05:48:50;;;;;;;15.87;6.50;;;11.20;99.90;;;;;;5043332;28;20460;-51
2022/09/20 05:51:51;;;;;;;10.80;6.03;;;11.20;99.90;;;;;;5051243;28;20433;-53
2022/09/20 05:55:04;;;;;;;8.73;5.70;;;11.30;99.90;;;;;;5068395;28;20454;-53
2022/09/20 05:57:55;;;;;;;15.83;6.80;;;11.30;99.90;;;;;;5061834;28;20432;-50
2022/09/20 06:00:27;;;;;;;8.67;6.03;;;11.40;99.90;;;;;;5046940;28;20467;-47
2022/09/20 06:03:32;;;;;;;10.00;6.43;;;11.40;99.90;;;;;;5047371;28;21124;-50
2022/09/20 06:06:39;;;;;;;8.00;5.57;;;11.40;99.90;;;;;;5031764;28;20441;-51
2022/09/20 06:09:19;;;;;;;8.80;5.60;;;11.40;99.90;;;;;;5018656;28;21048;-48
2022/09/20 06:12:06;;;;;;;7.67;5.17;;;11.50;99.90;;;;;;5049668;28;20436;-52
2022/09/20 06:15:10;;;;;;;6.47;5.30;;;11.50;99.90;;;;;;5048915;28;20420;-47
2022/09/20 06:17:47;;;;;;;10.30;5.30;;;11.60;99.90;;;;;;5048484;28;20433;-48
2022/09/20 06:20:43;;;;;;;11.20;5.60;;;11.60;99.90;;;;;;5047497;28;21205;-49
2022/09/20 06:23:09;;;;;;;15.10;6.23;;;11.60;99.90;;;;;;5046029;28;20570;-51
2022/09/20 06:25:54;;;;;;;9.70;5.70;;;11.60;99.90;;;;;;5045484;28;20477;-49
2022/09/20 06:28:25;;;;;;;6.27;5.07;;;11.60;99.90;;;;;;5044889;28;20818;-49
2022/09/20 06:30:52;;;;;;;8.73;5.77;;;11.60;99.90;;;;;;5042536;28;20459;-51
2022/09/20 06:33:25;;;;;;;9.20;6.03;;;11.60;99.90;;;;;;5042998;28;20428;-52
2022/09/20 06:42:01;;;;;;;8.90;4.93;;;11.70;99.90;;;;;;5069419;28;20419;-50
2022/09/20 06:44:26;;;;;;;13.13;6.40;;;11.70;99.90;;;;;;5050018;28;20539;-51
2022/09/20 06:46:53;;;;;;;8.40;5.97;;;11.80;99.90;;;;;;5052531;28;20196;-46
2022/09/20 06:49:19;;;;;;;12.37;6.80;;;11.90;99.90;;;;;;5046699;28;20198;-48
2022/09/20 06:51:46;;;;;;;9.13;6.20;;;11.90;99.90;;;;;;5046698;28;20966;-49
2022/09/20 06:54:17;;;;;;;7.80;5.50;;;12.00;99.90;;;;;;5050126;28;20456;-49
2022/09/20 06:56:45;;;;;;;10.50;6.03;;;12.10;99.90;;;;;;5052313;28;20420;-50
2022/09/20 06:59:11;;;;;;;12.87;6.07;;;12.10;99.90;;;;;;5051762;28;20481;-48
2022/09/20 07:01:37;;;;;;;11.47;5.67;;;12.20;99.90;;;;;;5053503;28;20930;-51
2022/09/20 07:04:05;;;;;;;6.70;5.40;;;12.20;99.90;;;;;;5052447;28;20796;-47
2022/09/20 07:06:31;;;;;;;9.70;5.60;;;12.20;99.90;;;;;;5053299;28;20432;-47
2022/09/20 07:08:56;;;;;;;10.97;5.83;;;12.20;99.90;;;;;;5053167;28;21018;-50
2022/09/20 07:11:22;;;;;;;24.83;9.20;;;12.20;99.90;;;;;;5053323;28;20435;-52
2022/09/20 07:13:53;;;;;;;16.30;6.87;;;12.10;99.90;;;;;;5052603;28;20347;-49
2022/09/20 07:16:22;;;;;;;13.50;7.13;;;12.00;99.90;;;;;;5053295;28;20220;-48
2022/09/20 07:18:48;;;;;;;12.57;7.30;;;12.00;99.90;;;;;;5053012;28;20469;-50
2022/09/20 07:21:16;;;;;;;9.30;6.67;;;12.10;99.90;;;;;;5064177;28;20850;-50
2022/09/20 07:23:44;;;;;;;9.57;7.40;;;12.10;99.90;;;;;;5052431;28;20556;-46
2022/09/20 07:26:37;;;;;;;8.43;5.97;;;12.10;99.90;;;;;;5053069;28;20428;-50
2022/09/20 07:29:04;;;;;;;12.27;7.43;;;12.10;99.90;;;;;;5053115;28;20514;-47
2022/09/20 07:31:30;;;;;;;8.60;6.63;;;12.10;99.90;;;;;;5052675;28;20421;-50
2022/09/20 07:33:55;;;;;;;11.40;6.53;;;12.10;99.90;;;;;;5051870;28;20784;-48
2022/09/20 07:36:21;;;;;;;12.13;6.20;;;12.20;99.90;;;;;;5052962;28;20241;-49
2022/09/20 07:38:51;;;;;;;9.97;6.50;;;12.30;99.90;;;;;;5052619;28;20243;-48
2022/09/20 07:41:18;;;;;;;10.67;6.77;;;12.30;99.90;;;;;;5052658;28;20248;-52
2022/09/20 07:43:45;;;;;;;12.90;5.43;;;12.40;99.90;;;;;;5051830;28;20430;-47
2022/09/20 07:46:12;;;;;;;11.13;5.80;;;12.30;99.90;;;;;;5052257;28;20428;-51
2022/09/20 07:48:39;;;;;;;11.17;6.50;;;12.40;99.90;;;;;;5052177;28;20468;-49
2022/09/20 07:51:06;;;;;;;11.10;6.90;;;12.40;99.90;;;;;;5052496;28;20436;-49
2022/09/20 07:53:32;;;;;;;9.60;7.13;;;12.40;99.90;;;;;;5050067;28;20424;-48
2022/09/20 07:56:04;;;;;;;10.87;5.70;;;12.60;99.90;;;;;;5051246;28;20432;-48
2022/09/20 07:58:32;;;;;;;11.23;5.53;;;12.80;99.90;;;;;;5052364;28;20239;-47
2022/09/20 08:01:01;;;;;;;8.67;5.60;;;12.90;99.90;;;;;;5052126;28;20440;-51
2022/09/20 08:03:29;;;;;;;10.37;6.33;;;13.20;99.90;;;;;;5051574;28;20439;-48
2022/09/20 08:06:04;;;;;;;9.80;6.63;;;13.40;99.90;;;;;;5052051;28;20525;-47
2022/09/20 08:08:39;;;;;;;8.47;5.27;;;13.70;99.90;;;;;;5052158;28;20467;-49
2022/09/20 08:11:11;;;;;;;8.73;5.60;;;13.70;99.90;;;;;;5051726;28;20427;-50
2022/09/20 08:13:48;;;;;;;8.60;5.40;;;13.60;99.90;;;;;;5051422;28;20424;-47
2022/09/20 08:16:15;;;;;;;12.70;5.70;;;13.60;99.90;;;;;;5051831;28;20424;-48
2022/09/20 08:19:01;;;;;;;9.70;6.23;;;13.60;99.90;;;;;;5052019;28;20788;-48
2022/09/20 08:21:32;;;;;;;7.47;5.30;;;13.60;99.90;;;;;;5040794;28;20861;-53
2022/09/20 08:23:59;;;;;;;8.80;5.47;;;13.60;99.90;;;;;;5051051;28;20825;-51
2022/09/20 08:26:26;;;;;;;7.17;4.97;;;13.60;99.90;;;;;;5051892;28;20424;-49
2022/09/20 08:28:54;;;;;;;9.97;5.03;;;13.70;99.90;;;;;;5051584;28;20468;-50
2022/09/20 08:31:22;;;;;;;9.10;5.07;;;13.60;99.90;;;;;;5051770;28;20787;-47
2022/09/20 08:33:49;;;;;;;7.77;5.23;;;13.60;99.90;;;;;;5050974;28;20431;-48
2022/09/20 08:36:23;;;;;;;7.03;4.83;;;13.60;99.90;;;;;;5051260;28;20428;-53
2022/09/20 08:38:50;;;;;;;5.13;4.20;;;13.60;99.90;;;;;;5051482;28;20432;-48
2022/09/20 08:41:25;;;;;;;10.53;4.70;;;13.60;99.90;;;;;;5051484;28;20452;-48
2022/09/20 08:44:02;;;;;;;7.77;3.87;;;13.60;99.90;;;;;;5050840;28;20439;-52
2022/09/20 08:46:34;;;;;;;9.63;4.40;;;13.60;99.90;;;;;;5051052;28;20436;-49
2022/09/20 08:49:03;;;;;;;10.17;4.50;;;13.60;99.90;;;;;;5051239;28;20525;-53
2022/09/20 08:51:33;;;;;;;5.20;3.93;;;13.60;99.90;;;;;;5051204;28;20473;-48
2022/09/20 08:53:59;;;;;;;8.47;4.13;;;13.60;99.90;;;;;;5049195;28;20420;-49
2022/09/20 08:56:29;;;;;;;9.90;3.77;;;13.70;99.90;;;;;;5051089;28;20515;-49
2022/09/20 08:58:58;;;;;;;8.03;3.63;;;13.70;99.90;;;;;;5051028;28;20803;-49
2022/09/20 09:01:26;;;;;;;7.57;4.30;;;13.70;99.90;;;;;;5051017;28;20502;-47
2022/09/20 09:04:22;;;;;;;9.83;4.40;;;13.60;99.90;;;;;;5050332;28;20428;-50
2022/09/20 09:06:51;;;;;;;8.17;3.83;;;13.60;99.90;;;;;;5049518;28;20472;-47
2022/09/20 09:09:27;;;;;;;7.33;4.37;;;13.60;99.90;;;;;;5050901;28;20510;-48
2022/09/20 09:11:55;;;;;;;7.57;5.13;;;13.60;99.90;;;;;;5050909;28;20436;-50
2022/09/20 09:17:13;;;;;;;5.77;3.90;;;13.60;99.90;;;;;;5050660;28;20420;-48
2022/09/20 09:20:06;;;;;;;10.00;4.50;;;13.60;99.90;;;;;;5056311;28;20431;-49
2022/09/20 09:22:41;;;;;;;4.73;3.97;;;13.70;99.90;;;;;;5049093;28;20443;-47
2022/09/20 09:25:14;;;;;;;6.57;4.20;;;13.70;99.90;;;;;;5050786;28;20477;-48
2022/09/20 09:27:56;;;;;;;6.40;3.80;;;13.80;99.90;;;;;;5050498;28;20794;-49
2022/09/20 09:30:30;;;;;;;7.53;4.30;;;13.90;99.90;;;;;;5050292;28;20806;-49
2022/09/20 09:33:19;;;;;;;5.37;3.90;;;14.00;99.90;;;;;;5049790;28;21287;-49
2022/09/20 09:36:04;;;;;;;6.10;3.67;;;14.20;99.90;;;;;;5050670;28;20462;-49
2022/09/20 09:38:33;;;;;;;5.23;3.10;;;14.50;99.90;;;;;;5050218;28;20466;-46
2022/09/20 09:41:01;;;;;;;8.30;4.00;;;14.60;99.90;;;;;;5050764;28;20888;-51
2022/09/20 09:43:34;;;;;;;10.00;4.20;;;14.70;99.90;;;;;;5049759;28;20460;-47
2022/09/20 09:46:22;;;;;;;8.53;3.83;;;14.70;99.90;;;;;;5050370;28;20546;-51
2022/09/20 09:49:06;;;;;;;5.00;3.33;;;14.80;99.90;;;;;;5050163;28;21023;-49
2022/09/20 09:51:32;;;;;;;5.40;3.40;;;14.80;99.90;;;;;;5050206;28;20411;-51
2022/09/20 09:53:58;;;;;;;7.37;4.37;;;14.80;99.90;;;;;;5046809;28;20424;-48
2022/09/20 09:56:36;;;;;;;6.73;3.87;;;14.70;99.90;;;;;;5049519;28;20426;-49
2022/09/20 09:59:24;;;;;;;10.73;4.07;;;14.70;99.90;;;;;;5049879;28;20428;-49
2022/09/20 10:02:00;;;;;;;5.03;3.33;;;14.50;99.90;;;;;;5050282;28;20412;-48
2022/09/20 10:04:56;;;;;;;4.83;3.23;;;14.50;99.90;;;;;;5047787;28;20451;-51
2022/09/20 10:07:48;;;;;;;9.67;3.13;;;14.40;99.90;;;;;;5049788;28;20448;-48
2022/09/20 10:10:38;;;;;;;4.77;3.57;;;14.40;99.90;;;;;;5048820;28;20420;-49
2022/09/20 10:13:11;;;;;;;5.53;3.60;;;14.30;99.90;;;;;;5049270;28;21007;-49
2022/09/20 10:16:01;;;;;;;4.20;2.80;;;14.20;99.90;;;;;;5049930;28;20935;-53
2022/09/20 10:18:53;;;;;;;3.83;2.00;;;14.20;99.90;;;;;;5049058;28;20436;-51
2022/09/20 10:21:42;;;;;;;4.10;2.33;;;14.10;99.90;;;;;;5059890;28;20490;-53
2022/09/20 10:24:29;;;;;;;3.83;1.90;;;14.20;99.90;;;;;;5049124;28;20431;-50
2022/09/20 10:27:13;;;;;;;2.67;1.90;;;14.30;99.90;;;;;;5049846;28;20463;-51
2022/09/20 10:29:57;;;;;;;3.20;1.60;;;14.30;99.90;;;;;;5049839;28;20466;-50
2022/09/20 10:33:13;;;;;;;7.73;2.40;;;14.40;99.90;;;;;;5049537;28;20511;-49
2022/09/20 10:36:15;;;;;;;1.80;1.30;;;14.40;99.90;;;;;;5066687;28;20432;-49
2022/09/20 10:39:00;;;;;;;3.60;1.80;;;14.40;99.90;;;;;;5066735;28;20426;-52
2022/09/20 10:44:25;;;;;;;4.77;1.70;;;14.50;99.90;;;;;;5048970;28;20420;-47
2022/09/20 10:47:03;;;;;;;6.00;1.40;;;14.30;99.90;;;;;;5049673;28;20474;-48
2022/09/20 10:49:59;;;;;;;5.23;3.00;;;14.30;99.90;;;;;;5047976;28;20499;-50
2022/09/20 10:52:31;;;;;;;3.13;2.10;;;14.20;99.90;;;;;;5049415;28;20424;-49
2022/09/20 10:55:33;;;;;;;4.07;1.63;;;14.20;99.90;;;;;;5047556;28;20772;-48
2022/09/20 10:58:29;;;;;;;3.20;2.23;;;14.30;99.90;;;;;;5061817;28;20431;-47
2022/09/20 11:01:01;;;;;;;3.20;1.60;;;14.40;99.90;;;;;;5048045;28;21046;-48
2022/09/20 11:03:54;;;;;;;3.20;1.40;;;14.50;99.90;;;;;;5048778;28;20945;-51
2022/09/20 11:06:54;;;;;;;4.40;1.97;;;14.60;99.90;;;;;;5049072;28;20442;-53
2022/09/20 11:09:25;;;;;;;4.20;1.33;;;14.90;99.90;;;;;;5049293;28;20467;-49
2022/09/20 11:12:03;;;;;;;2.60;1.40;;;15.10;99.90;;;;;;5049380;28;20424;-50
2022/09/20 11:14:37;;;;;;;3.53;1.40;;;15.20;99.90;;;;;;5048356;28;20424;-47
2022/09/20 11:17:18;;;;;;;3.40;1.53;;;15.20;99.90;;;;;;5049301;28;20503;-47
2022/09/20 11:19:59;;;;;;;1.37;1.07;;;15.20;99.90;;;;;;5055577;28;20430;-49
2022/09/20 11:22:41;;;;;;;1.93;1.33;;;15.30;99.90;;;;;;5051962;28;20420;-48
2022/09/20 11:25:32;;;;;;;6.00;1.57;;;15.30;99.90;;;;;;5049125;28;20427;-47
2022/09/20 11:28:10;;;;;;;2.83;1.77;;;15.40;99.90;;;;;;5049150;28;20463;-52
2022/09/20 11:30:51;;;;;;;3.87;1.70;;;15.40;99.90;;;;;;5049347;28;20428;-50
2022/09/20 11:33:24;;;;;;;3.80;1.57;;;15.40;99.90;;;;;;5051941;28;20788;-50
2022/09/20 11:35:54;;;;;;;3.77;1.60;;;15.40;99.90;;;;;;5052841;28;20478;-50
2022/09/20 11:38:38;;;;;;;2.43;1.40;;;15.40;99.90;;;;;;5052668;28;20454;-54
2022/09/20 11:41:12;;;;;;;7.50;1.70;;;15.40;99.90;;;;;;5052631;28;20960;-51
2022/09/20 11:43:41;;;;;;;4.03;1.90;;;15.50;99.90;;;;;;5051809;28;21069;-53
2022/09/20 11:46:12;;;;;;;4.10;2.10;;;15.60;99.90;;;;;;5052670;28;20434;-47
2022/09/20 11:48:54;;;;;;;3.80;1.77;;;15.50;99.90;;;;;;5052450;28;20463;-50
2022/09/20 11:51:30;;;;;;;3.87;1.87;;;15.40;99.90;;;;;;5052527;28;20451;-51
2022/09/20 11:54:41;;;;;;;4.20;2.07;;;15.40;99.90;;;;;;5050330;28;20478;-47
2022/09/20 11:57:12;;;;;;;2.90;1.80;;;15.40;99.90;;;;;;5052913;28;20485;-47
2022/09/20 11:59:42;;;;;;;2.50;1.57;;;15.50;99.90;;;;;;5052320;28;20424;-47
2022/09/20 12:02:43;;;;;;;2.37;1.50;;;15.50;99.90;;;;;;5052246;28;20416;-48
2022/09/20 12:05:28;;;;;;;2.33;1.60;;;15.40;99.90;;;;;;5052101;28;20458;-50
2022/09/20 12:07:57;;;;;;;4.87;1.80;;;15.40;99.90;;;;;;5051841;28;20555;-52
2022/09/20 12:10:26;;;;;;;6.37;1.90;;;15.40;99.90;;;;;;5052215;28;20424;-52
2022/09/20 12:13:04;;;;;;;4.77;1.90;;;15.40;99.90;;;;;;5050930;28;20511;-48
2022/09/20 12:15:32;;;;;;;3.10;1.60;;;15.40;99.90;;;;;;5052422;28;20477;-48
2022/09/20 12:17:57;;;;;;;8.50;2.47;;;15.40;99.90;;;;;;5051806;28;20470;-47
2022/09/20 12:20:35;;;;;;;3.27;1.90;;;15.40;99.90;;;;;;5063438;28;20423;-48
2022/09/20 12:23:34;;;;;;;4.17;1.83;;;15.30;99.90;;;;;;5050234;28;20251;-51
2022/09/20 12:26:21;;;;;;;3.77;1.83;;;15.20;99.90;;;;;;5050510;28;20475;-48
2022/09/20 12:28:52;;;;;;;2.47;1.90;;;15.20;99.90;;;;;;5051579;28;20556;-51
2022/09/20 12:31:17;;;;;;;3.77;2.00;;;15.10;99.90;;;;;;5051908;28;20511;-47
2022/09/20 12:34:09;;;;;;;2.60;1.60;;;15.10;99.90;;;;;;5050540;28;20508;-51
2022/09/20 12:36:55;;;;;;;3.07;2.03;;;15.20;99.90;;;;;;5051657;28;20190;-49
2022/09/20 12:39:48;;;;;;;2.10;1.70;;;15.20;99.90;;;;;;5053954;28;20427;-49
2022/09/20 12:42:17;;;;;;;3.30;2.33;;;15.10;99.90;;;;;;5051033;28;20420;-50
2022/09/20 12:44:48;;;;;;;2.80;2.00;;;15.10;99.90;;;;;;5049613;28;20435;-51
2022/09/20 12:47:21;;;;;;;2.47;2.20;;;15.00;99.90;;;;;;5051389;28;20424;-50
2022/09/20 12:55:32;;;;;;;3.50;1.90;;;15.00;99.90;;;;;;5049704;28;20794;-49
2022/09/20 12:58:13;;;;;;;3.80;3.10;;;15.10;99.90;;;;;;5050962;28;20483;-52
2022/09/20 13:00:45;;;;;;;5.00;2.77;;;15.20;99.90;;;;;;5050968;28;20478;-51
2022/09/20 13:03:22;;;;;;;6.50;2.23;;;15.30;99.90;;;;;;5049240;28;20432;-52
2022/09/20 13:06:11;;;;;;;2.30;2.10;;;15.40;99.90;;;;;;5051064;28;20443;-48
2022/09/20 13:09:03;;;;;;;4.47;2.47;;;15.60;99.90;;;;;;5050759;28;20467;-48
2022/09/20 13:11:40;;;;;;;3.20;1.90;;;15.70;99.90;;;;;;5051138;28;20791;-48
2022/09/20 13:14:15;;;;;;;2.97;1.80;;;15.60;99.90;;;;;;5050073;28;20416;-51
2022/09/20 13:16:48;;;;;;;2.93;1.60;;;15.40;99.90;;;;;;5049632;28;20431;-50
2022/09/20 13:19:27;;;;;;;3.97;1.70;;;15.50;99.90;;;;;;5052765;28;20490;-49
2022/09/20 13:22:13;;;;;;;3.77;1.60;;;15.40;99.90;;;;;;5056728;28;20432;-48
2022/09/20 13:24:47;;;;;;;7.33;1.70;;;15.50;99.90;;;;;;5050092;28;20772;-50
2022/09/20 13:27:29;;;;;;;4.37;1.70;;;15.60;99.90;;;;;;5050667;28;20435;-47
2022/09/20 13:30:08;;;;;;;2.57;1.20;;;15.70;99.90;;;;;;5050336;28;20523;-53
2022/09/20 13:32:34;;;;;;;6.70;1.80;;;15.90;99.90;;;;;;5050385;28;20961;-50
2022/09/20 13:35:21;;;;;;;3.10;1.27;;;16.00;99.90;;;;;;5049992;28;20444;-49
2022/09/20 13:37:55;;;;;;;1.33;1.00;;;16.30;99.90;;;;;;5050552;28;20443;-51
2022/09/20 13:40:32;;;;;;;5.30;1.13;;;16.40;99.90;;;;;;5050220;28;21172;-49
2022/09/20 13:43:15;;;;;;;2.90;1.03;;;16.50;99.90;;;;;;5049751;28;20420;-51
2022/09/20 13:45:42;;;;;;;1.70;1.17;;;16.60;99.90;;;;;;5050058;28;20486;-49
2022/09/20 13:48:08;;;;;;;1.30;0.93;;;16.60;99.90;;;;;;5049151;28;20463;-50
2022/09/20 13:50:36;;;;;;;3.23;1.03;;;16.50;99.90;;;;;;5049452;28;20499;-51
2022/09/20 13:53:14;;;;;;;2.27;1.10;;;16.40;99.90;;;;;;5048874;28;20427;-51
2022/09/20 13:55:42;;;;;;;4.03;1.50;;;16.20;99.90;;;;;;5049996;28;20420;-53
2022/09/20 13:58:18;;;;;;;1.47;0.80;;;16.00;99.90;;;;;;5050178;28;20470;-48
2022/09/20 14:00:49;;;;;;;1.70;1.00;;;15.90;99.90;;;;;;5050211;28;20423;-50
2022/09/20 14:03:18;;;;;;;3.60;1.37;;;15.80;99.90;;;;;;5049292;28;21020;-49